createdAt,value
2023-05-21T00:02:19.854Z,3.50
2023-05-21T00:04:46.989Z,3.47
2023-05-21T00:07:15.210Z,3.92
2023-05-21T00:09:41.776Z,3.58
2023-05-21T00:12:09.091Z,3.55
2023-05-21T00:14:36.015Z,3.63
2023-05-21T00:17:02.632Z,3.53
2023-05-21T00:19:29.166Z,3.88
2023-05-21T00:21:56.030Z,3.70
2023-05-21T00:24:22.507Z,3.88
2023-05-21T00:26:48.933Z,3.80
2023-05-21T00:29:15.352Z,4.00
2023-05-21T00:31:41.947Z,4.00
2023-05-21T00:34:08.555Z,4.03
2023-05-21T00:36:35.035Z,4.07
2023-05-21T00:39:02.424Z,3.90
2023-05-21T00:41:30.260Z,4.00
2023-05-21T00:43:57.212Z,4.00
2023-05-21T00:46:24.133Z,4.00
2023-05-21T00:48:51.056Z,3.90
2023-05-21T00:51:18.677Z,3.90
2023-05-21T00:53:46.639Z,4.20
2023-05-21T00:56:13.603Z,4.15
2023-05-21T00:58:40.979Z,4.20
2023-05-21T01:01:13.541Z,4.10
2023-05-21T01:03:41.076Z,4.40
2023-05-21T01:06:09.427Z,4.50
2023-05-21T01:08:37.678Z,4.90
2023-05-21T01:11:05.705Z,4.32
2023-05-21T01:13:34.622Z,4.20
2023-05-21T01:16:02.938Z,4.17
2023-05-21T01:18:29.855Z,4.20
2023-05-21T01:20:56.362Z,4.40
2023-05-21T01:23:22.917Z,4.60
2023-05-21T01:25:49.512Z,4.47
2023-05-21T01:28:15.985Z,4.67
2023-05-21T01:30:43.853Z,4.22
2023-05-21T01:33:24.290Z,4.47
2023-05-21T01:35:56.328Z,4.13
2023-05-21T01:39:05.091Z,4.40
2023-05-21T01:41:36.968Z,4.57
2023-05-21T01:44:07.020Z,4.63
2023-05-21T01:46:36.163Z,4.70
2023-05-21T01:49:04.949Z,4.60
2023-05-21T01:51:32.008Z,4.50
2023-05-21T01:53:58.567Z,4.87
2023-05-21T01:56:25.808Z,4.95
2023-05-21T01:58:52.688Z,4.57
2023-05-21T02:01:20.260Z,4.53
2023-05-21T02:03:46.844Z,4.45
2023-05-21T02:06:13.310Z,4.40
2023-05-21T02:08:40.323Z,4.57
2023-05-21T02:11:06.924Z,4.78
2023-05-21T02:13:33.821Z,4.90
2023-05-21T02:16:01.537Z,4.45
2023-05-21T02:18:29.246Z,4.70
2023-05-21T02:20:55.844Z,4.50
2023-05-21T02:23:22.312Z,4.90
2023-05-21T02:25:48.899Z,4.70
2023-05-21T02:28:15.874Z,4.60
2023-05-21T02:30:42.338Z,4.57
2023-05-21T02:33:09.210Z,4.80
2023-05-21T02:35:36.042Z,4.60
2023-05-21T02:38:03.060Z,4.90
2023-05-21T02:40:29.575Z,4.90
2023-05-21T02:42:56.043Z,4.80
2023-05-21T02:45:22.476Z,4.47
2023-05-21T02:47:49.083Z,4.82
2023-05-21T02:50:15.620Z,4.70
2023-05-21T02:52:42.221Z,4.93
2023-05-21T02:55:09.596Z,4.57
2023-05-21T02:57:36.006Z,4.63
2023-05-21T03:00:03.723Z,4.70
2023-05-21T03:02:30.327Z,4.72
2023-05-21T03:04:56.854Z,4.60
2023-05-21T03:07:24.363Z,4.50
2023-05-21T03:09:50.858Z,4.80
2023-05-21T03:12:17.370Z,4.65
2023-05-21T03:14:44.248Z,4.72
2023-05-21T03:17:13.936Z,4.60
2023-05-21T03:19:41.776Z,4.67
2023-05-21T03:22:08.889Z,4.45
2023-05-21T03:24:36.694Z,4.57
2023-05-21T03:27:05.930Z,4.80
2023-05-21T03:29:32.628Z,4.80
2023-05-21T03:31:59.360Z,4.50
2023-05-21T03:34:25.817Z,4.57
2023-05-21T03:36:52.322Z,5.05
2023-05-21T03:39:18.921Z,4.60
2023-05-21T03:41:45.415Z,4.70
2023-05-21T03:44:11.971Z,4.50
2023-05-21T03:46:38.512Z,4.50
2023-05-21T03:49:05.037Z,4.95
2023-05-21T03:51:31.745Z,4.50
2023-05-21T03:53:59.256Z,4.60
2023-05-21T03:56:26.292Z,4.57
2023-05-21T03:58:53.062Z,4.45
2023-05-21T04:01:19.707Z,4.80
2023-05-21T04:03:46.370Z,4.60
2023-05-21T04:06:12.923Z,4.53
2023-05-21T04:08:39.672Z,4.60
2023-05-21T04:11:06.097Z,4.63
2023-05-21T04:13:32.736Z,4.43
2023-05-21T04:15:59.753Z,4.38
2023-05-21T04:18:26.773Z,4.90
2023-05-21T04:20:53.820Z,4.43
2023-05-21T04:23:23.370Z,4.57
2023-05-21T04:25:50.794Z,4.80
2023-05-21T04:28:20.492Z,4.28
2023-05-21T04:30:49.983Z,4.20
2023-05-21T04:33:20.150Z,4.43
2023-05-21T04:35:50.121Z,4.53
2023-05-21T04:38:19.578Z,4.50
2023-05-21T04:40:52.302Z,4.43
2023-05-21T04:43:25.561Z,4.65
2023-05-21T04:45:54.692Z,4.50
2023-05-21T04:48:24.687Z,4.95
2023-05-21T04:50:52.079Z,4.70
2023-05-21T04:53:18.550Z,4.70
2023-05-21T04:55:45.060Z,4.63
2023-05-21T04:58:11.561Z,4.70
2023-05-21T05:00:39.241Z,4.35
2023-05-21T05:03:05.816Z,5.00
2023-05-21T05:05:32.318Z,4.90
2023-05-21T05:07:58.776Z,4.63
2023-05-21T05:10:25.204Z,4.60
2023-05-21T05:12:51.625Z,5.10
2023-05-21T05:15:18.106Z,4.95
2023-05-21T05:17:44.750Z,5.10
2023-05-21T05:20:11.598Z,5.10
2023-05-21T05:22:38.129Z,5.43
2023-05-21T05:25:05.306Z,5.10
2023-05-21T05:27:31.740Z,5.28
2023-05-21T05:29:58.169Z,5.78
2023-05-21T05:32:24.714Z,5.70
2023-05-21T05:34:51.379Z,5.47
2023-05-21T05:37:17.932Z,5.80
2023-05-21T05:39:44.365Z,5.30
2023-05-21T05:42:10.815Z,5.45
2023-05-21T05:44:37.304Z,5.50
2023-05-21T05:47:03.927Z,5.60
2023-05-21T05:49:30.394Z,5.65
2023-05-21T05:51:56.844Z,5.70
2023-05-21T05:54:23.267Z,5.70
2023-05-21T05:56:49.707Z,5.95
2023-05-21T05:59:16.444Z,5.93
2023-05-21T06:01:42.864Z,6.15
2023-05-21T06:04:09.330Z,6.00
2023-05-21T06:06:36.735Z,5.85
2023-05-21T06:09:03.265Z,5.82
2023-05-21T06:11:29.699Z,6.13
2023-05-21T06:13:56.709Z,5.75
2023-05-21T06:16:23.254Z,5.88
2023-05-21T06:18:49.758Z,5.60
2023-05-21T06:21:16.479Z,5.82
2023-05-21T06:23:42.924Z,5.97
2023-05-21T06:26:09.370Z,5.82
2023-05-21T06:28:36.270Z,5.22
2023-05-21T06:31:02.766Z,6.15
2023-05-21T06:33:29.347Z,7.20
2023-05-21T06:35:55.879Z,5.67
2023-05-21T06:38:22.367Z,5.88
2023-05-21T06:40:49.486Z,5.63
2023-05-21T06:43:16.024Z,6.00
2023-05-21T06:45:42.509Z,6.03
2023-05-21T06:48:09.146Z,6.23
2023-05-21T06:50:35.690Z,6.05
2023-05-21T06:53:02.176Z,5.80
2023-05-21T06:55:28.672Z,5.95
2023-05-21T06:57:55.094Z,5.45
2023-05-21T07:00:21.775Z,5.03
2023-05-21T07:02:48.291Z,5.45
2023-05-21T07:05:14.760Z,5.78
2023-05-21T07:07:41.187Z,5.75
2023-05-21T07:10:08.450Z,5.65
2023-05-21T07:12:35.000Z,6.20
2023-05-21T07:15:01.479Z,6.00
2023-05-21T07:17:27.943Z,5.97
2023-05-21T07:19:54.405Z,6.10
2023-05-21T07:22:20.994Z,5.60
2023-05-21T07:24:47.473Z,6.20
2023-05-21T07:27:24.803Z,5.93
2023-05-21T07:29:52.504Z,5.82
2023-05-21T07:32:18.952Z,5.45
2023-05-21T07:34:45.380Z,5.72
2023-05-21T07:37:11.817Z,6.17
2023-05-21T07:39:38.254Z,5.88
2023-05-21T07:42:04.908Z,5.97
2023-05-21T07:44:31.939Z,6.57
2023-05-21T07:46:58.378Z,5.85
2023-05-21T07:49:24.814Z,6.43
2023-05-21T07:51:51.266Z,5.72
2023-05-21T07:54:18.207Z,6.28
2023-05-21T07:56:44.633Z,5.97
2023-05-21T07:59:13.323Z,5.82
2023-05-21T08:01:41.055Z,5.90
2023-05-21T08:04:07.891Z,6.20
2023-05-21T08:06:34.668Z,6.55
2023-05-21T08:09:04.655Z,5.47
2023-05-21T08:11:31.080Z,6.15
2023-05-21T08:13:57.542Z,6.27
2023-05-21T08:16:24.208Z,6.10
2023-05-21T08:18:50.894Z,6.18
2023-05-21T08:21:17.448Z,6.18
2023-05-21T08:23:44.408Z,6.00
2023-05-21T08:26:11.057Z,5.80
2023-05-21T08:28:40.501Z,5.80
2023-05-21T08:31:06.997Z,6.13
2023-05-21T08:33:37.142Z,6.25
2023-05-21T08:36:07.911Z,6.22
2023-05-21T08:38:34.618Z,6.13
2023-05-21T08:41:01.209Z,5.57
2023-05-21T08:43:28.648Z,6.25
2023-05-21T08:45:57.274Z,6.13
2023-05-21T08:48:24.254Z,6.25
2023-05-21T08:50:52.446Z,5.60
2023-05-21T08:53:27.294Z,5.85
2023-05-21T08:55:56.118Z,6.60
2023-05-21T08:58:23.136Z,6.30
2023-05-21T09:00:49.865Z,5.88
2023-05-21T09:03:16.728Z,5.83
2023-05-21T09:05:45.081Z,6.00
2023-05-21T09:08:18.354Z,5.93
2023-05-21T09:10:52.276Z,6.00
2023-05-21T09:13:20.190Z,6.10
2023-05-21T09:15:47.842Z,5.93
2023-05-21T09:18:14.897Z,6.20
2023-05-21T09:20:41.604Z,5.50
2023-05-21T09:23:17.038Z,5.80
2023-05-21T09:25:47.985Z,5.78
2023-05-21T09:28:16.104Z,6.00
2023-05-21T09:30:52.219Z,5.95
2023-05-21T09:33:26.606Z,5.80
2023-05-21T09:35:53.195Z,5.70
2023-05-21T09:38:22.967Z,6.00
2023-05-21T09:40:49.456Z,5.80
2023-05-21T09:43:16.378Z,6.03
2023-05-21T09:45:53.703Z,6.47
2023-05-21T09:48:40.779Z,5.30
2023-05-21T09:51:18.045Z,5.88
2023-05-21T09:53:54.662Z,5.67
2023-05-21T09:56:23.594Z,5.75
2023-05-21T09:59:00.279Z,6.20
2023-05-21T10:01:27.419Z,5.55
2023-05-21T10:03:58.589Z,5.97
2023-05-21T10:06:28.365Z,5.23
2023-05-21T10:08:57.070Z,5.65
2023-05-21T10:11:27.226Z,5.53
2023-05-21T10:14:10.489Z,5.50
2023-05-21T10:16:37.467Z,6.20
2023-05-21T10:19:10.924Z,5.83
2023-05-21T10:21:39.713Z,5.75
2023-05-21T10:24:07.394Z,5.80
2023-05-21T10:26:34.507Z,5.63
2023-05-21T10:29:02.686Z,5.55
2023-05-21T10:31:29.603Z,5.77
2023-05-21T10:33:56.250Z,5.80
2023-05-21T10:36:24.639Z,6.28
2023-05-21T10:38:51.460Z,6.05
2023-05-21T10:41:20.011Z,5.93
2023-05-21T10:43:59.320Z,6.10
2023-05-21T10:46:47.171Z,5.65
2023-05-21T10:49:38.482Z,5.57
2023-05-21T10:52:51.418Z,5.25
2023-05-21T10:55:36.488Z,5.47
2023-05-21T10:58:14.948Z,5.83
2023-05-21T11:00:42.753Z,5.85
2023-05-21T11:03:12.882Z,5.85
2023-05-21T11:05:52.697Z,5.50
2023-05-21T11:08:27.445Z,5.38
2023-05-21T11:10:55.367Z,5.60
2023-05-21T11:13:22.061Z,6.10
2023-05-21T11:15:57.739Z,5.80
2023-05-21T11:18:47.113Z,5.90
2023-05-21T11:21:14.988Z,5.20
2023-05-21T11:23:50.872Z,5.40
2023-05-21T11:26:26.367Z,6.03
2023-05-21T11:29:05.046Z,6.13
2023-05-21T11:31:39.578Z,6.25
2023-05-21T11:34:12.425Z,5.50
2023-05-21T11:36:45.588Z,5.63
2023-05-21T11:39:15.705Z,5.30
2023-05-21T11:41:52.440Z,6.07
2023-05-21T11:44:21.614Z,5.93
2023-05-21T11:46:48.841Z,5.82
2023-05-21T11:49:16.025Z,5.13
2023-05-21T11:51:42.933Z,5.40
2023-05-21T11:54:10.320Z,5.60
2023-05-21T11:56:41.767Z,5.70
2023-05-21T11:59:15.499Z,5.70
2023-05-21T12:01:44.181Z,5.60
2023-05-21T12:04:12.179Z,5.40
2023-05-21T12:06:42.547Z,5.32
2023-05-21T12:09:10.311Z,6.28
2023-05-21T12:11:41.126Z,5.60
2023-05-21T12:14:09.430Z,5.57
2023-05-21T12:16:36.312Z,5.53
2023-05-21T12:19:03.927Z,5.50
2023-05-21T12:21:31.429Z,5.45
2023-05-21T12:23:58.319Z,5.82
2023-05-21T12:26:25.831Z,5.57
2023-05-21T12:28:56.102Z,5.15
2023-05-21T12:31:23.580Z,5.20
2023-05-21T12:33:53.685Z,5.38
2023-05-21T12:36:26.859Z,5.55
2023-05-21T12:38:53.667Z,5.43
2023-05-21T12:41:22.081Z,5.30
2023-05-21T12:43:49.312Z,5.80
2023-05-21T12:46:19.767Z,5.88
2023-05-21T12:48:58.233Z,6.03
2023-05-21T12:51:24.829Z,5.23
2023-05-21T12:53:51.552Z,6.03
2023-05-21T12:56:18.056Z,5.70
2023-05-21T12:58:50.233Z,5.85
2023-05-21T13:01:16.709Z,5.68
2023-05-21T13:03:44.126Z,5.80
2023-05-21T13:06:10.787Z,6.00
2023-05-21T13:08:37.756Z,6.00
2023-05-21T13:11:04.820Z,6.00
2023-05-21T13:13:31.540Z,5.68
2023-05-21T13:16:00.561Z,5.70
2023-05-21T13:18:27.138Z,5.57
2023-05-21T13:20:53.788Z,5.40
2023-05-21T13:23:20.495Z,5.90
2023-05-21T13:25:46.917Z,5.50
2023-05-21T13:28:15.277Z,5.10
2023-05-21T13:30:41.772Z,5.10
2023-05-21T13:33:08.553Z,5.25
2023-05-21T13:35:35.284Z,5.03
2023-05-21T13:38:02.101Z,5.30
2023-05-21T13:40:28.574Z,5.00
2023-05-21T13:42:55.068Z,5.03
2023-05-21T13:45:21.757Z,5.20
2023-05-21T13:47:48.450Z,4.90
2023-05-21T13:50:16.028Z,4.85
2023-05-21T13:52:42.764Z,4.63
2023-05-21T13:55:09.961Z,4.90
2023-05-21T13:57:36.478Z,4.70
2023-05-21T14:00:04.655Z,5.07
2023-05-21T14:02:31.150Z,4.57
2023-05-21T14:04:57.677Z,3.90
2023-05-21T14:07:24.144Z,4.85
2023-05-21T14:09:50.602Z,4.50
2023-05-21T14:12:17.210Z,4.68
2023-05-21T14:14:43.961Z,4.70
2023-05-21T14:17:10.493Z,4.67
2023-05-21T14:19:36.956Z,4.30
2023-05-21T14:22:03.449Z,4.40
2023-05-21T14:24:29.901Z,4.38
2023-05-21T14:26:56.393Z,4.28
2023-05-21T14:29:22.878Z,4.40
2023-05-21T14:31:49.454Z,4.78
2023-05-21T14:34:15.956Z,5.03
2023-05-21T14:36:42.386Z,4.80
2023-05-21T14:39:08.806Z,4.63
2023-05-21T14:41:39.526Z,4.57
2023-05-21T14:44:05.975Z,4.47
2023-05-21T14:46:32.889Z,4.78
2023-05-21T14:49:00.529Z,4.53
2023-05-21T14:51:27.073Z,4.75
2023-05-21T14:53:53.611Z,5.20
2023-05-21T14:56:21.877Z,5.00
2023-05-21T14:58:48.450Z,4.80
2023-05-21T15:01:15.062Z,5.15
2023-05-21T15:03:41.691Z,5.30
2023-05-21T15:06:08.458Z,4.90
2023-05-21T15:08:34.964Z,5.13
2023-05-21T15:11:01.538Z,5.05
2023-05-21T15:13:27.954Z,6.05
2023-05-21T15:15:54.517Z,5.75
2023-05-21T15:18:21.003Z,5.37
2023-05-21T15:20:47.514Z,5.10
2023-05-21T15:23:17.477Z,5.53
2023-05-21T15:25:45.065Z,5.40
2023-05-21T15:28:14.530Z,5.00
2023-05-21T15:30:40.954Z,5.13
2023-05-21T15:33:07.513Z,5.10
2023-05-21T15:35:36.359Z,5.35
2023-05-21T15:38:03.316Z,5.18
2023-05-21T15:40:29.770Z,4.78
2023-05-21T15:42:56.262Z,5.10
2023-05-21T15:45:22.725Z,5.55
2023-05-21T15:47:49.193Z,4.85
2023-05-21T15:50:15.793Z,5.57
2023-05-21T15:52:42.699Z,5.10
2023-05-21T15:55:09.644Z,5.47
2023-05-21T15:57:36.112Z,5.18
2023-05-21T16:00:02.650Z,4.78
2023-05-21T16:02:29.143Z,4.70
2023-05-21T16:04:55.654Z,5.55
2023-05-21T16:07:23.502Z,5.07
2023-05-21T16:09:50.056Z,5.47
2023-05-21T16:12:16.659Z,5.45
2023-05-21T16:14:43.150Z,5.65
2023-05-21T16:17:09.736Z,5.35
2023-05-21T16:19:36.473Z,6.13
2023-05-21T16:22:03.030Z,5.80
2023-05-21T16:24:29.505Z,5.53
2023-05-21T16:26:56.015Z,5.90
2023-05-21T16:29:22.485Z,5.78
2023-05-21T16:31:49.068Z,6.03
2023-05-21T16:34:15.788Z,6.20
2023-05-21T16:36:42.266Z,6.53
2023-05-21T16:39:08.772Z,6.15
2023-05-21T16:41:35.476Z,6.68
2023-05-21T16:44:01.988Z,8.37
2023-05-21T16:46:28.496Z,7.18
2023-05-21T16:48:54.997Z,6.13
2023-05-21T16:51:21.477Z,5.95
2023-05-21T16:53:48.151Z,6.32
2023-05-21T16:56:14.599Z,6.50
2023-05-21T16:58:41.038Z,5.90
2023-05-21T17:01:07.530Z,6.20
2023-05-21T17:03:34.192Z,7.10
2023-05-21T17:06:00.901Z,7.45
2023-05-21T17:08:27.362Z,6.80
2023-05-21T17:10:55.420Z,6.90
2023-05-21T17:13:23.027Z,6.80
2023-05-21T17:15:51.160Z,7.10
2023-05-21T17:18:17.999Z,7.43
2023-05-21T17:20:44.782Z,6.77
2023-05-21T17:23:12.434Z,6.80
2023-05-21T17:25:39.737Z,8.25
2023-05-21T17:28:06.854Z,7.70
2023-05-21T17:30:33.445Z,8.68
2023-05-21T17:33:02.173Z,8.40
2023-05-21T17:35:28.912Z,8.48
2023-05-21T17:37:55.389Z,8.10
2023-05-21T17:40:24.277Z,7.95
2023-05-21T17:42:51.895Z,7.93
2023-05-21T17:45:18.611Z,7.60
2023-05-21T17:47:45.072Z,7.80
2023-05-21T17:50:11.510Z,7.97
2023-05-21T17:52:37.972Z,8.13
2023-05-21T17:55:05.192Z,7.57
2023-05-21T17:57:31.639Z,8.00
2023-05-21T17:59:58.128Z,8.60
2023-05-21T18:02:25.387Z,8.57
2023-05-21T18:04:51.888Z,8.90
2023-05-21T18:07:18.293Z,8.02
2023-05-21T18:09:45.077Z,8.43
2023-05-21T18:12:11.605Z,8.60
2023-05-21T18:14:38.086Z,9.00
2023-05-21T18:17:05.752Z,8.38
2023-05-21T18:19:32.343Z,8.57
2023-05-21T18:21:58.826Z,8.63
2023-05-21T18:24:25.603Z,9.45
2023-05-21T18:26:52.154Z,9.00
2023-05-21T18:29:18.638Z,9.20
2023-05-21T18:31:45.481Z,9.10
2023-05-21T18:34:12.212Z,9.17
2023-05-21T18:36:38.725Z,9.77
2023-05-21T18:39:06.810Z,9.95
2023-05-21T18:41:33.535Z,10.23
2023-05-21T18:44:01.684Z,10.68
2023-05-21T18:46:28.975Z,9.97
2023-05-21T18:48:56.050Z,10.57
2023-05-21T18:51:22.685Z,10.43
2023-05-21T18:53:49.140Z,9.35
2023-05-21T18:56:15.684Z,11.02
2023-05-21T18:58:42.128Z,11.57
2023-05-21T19:01:08.632Z,11.70
2023-05-21T19:03:35.043Z,11.30
2023-05-21T19:06:01.706Z,11.32
2023-05-21T19:08:28.133Z,11.23
2023-05-21T19:10:54.625Z,11.20
2023-05-21T19:13:21.242Z,11.30
2023-05-21T19:15:48.944Z,10.80
2023-05-21T19:18:17.280Z,10.77
2023-05-21T19:20:43.804Z,11.32
2023-05-21T19:23:10.483Z,10.70
2023-05-21T19:25:36.924Z,10.75
2023-05-21T19:28:03.439Z,10.88
2023-05-21T19:30:29.916Z,11.23
2023-05-21T19:32:56.448Z,10.98
2023-05-21T19:35:22.967Z,10.47
2023-05-21T19:37:49.895Z,10.85
2023-05-21T19:40:17.645Z,10.70
2023-05-21T19:42:44.760Z,10.02
2023-05-21T19:45:11.803Z,10.38
2023-05-21T19:47:41.038Z,10.83
2023-05-21T19:50:08.194Z,10.45
2023-05-21T19:52:34.652Z,10.80
2023-05-21T19:55:04.794Z,10.45
2023-05-21T19:57:32.561Z,10.57
2023-05-21T19:59:59.130Z,9.33
2023-05-21T20:02:26.580Z,10.23
2023-05-21T20:04:56.703Z,10.30
2023-05-21T20:07:23.787Z,10.02
2023-05-21T20:09:50.624Z,10.98
2023-05-21T20:12:17.056Z,10.87
2023-05-21T20:14:46.694Z,10.60
2023-05-21T20:17:14.305Z,11.32
2023-05-21T20:19:41.062Z,10.95
2023-05-21T20:22:07.551Z,10.68
2023-05-21T20:24:34.057Z,11.07
2023-05-21T20:27:01.687Z,10.98
2023-05-21T20:29:28.808Z,10.82
2023-05-21T20:31:55.458Z,11.35
2023-05-21T20:34:21.972Z,11.25
2023-05-21T20:36:49.166Z,11.57
2023-05-21T20:39:15.706Z,11.02
2023-05-21T20:41:44.772Z,11.82
2023-05-21T20:44:11.917Z,11.45
2023-05-21T20:46:41.152Z,11.15
2023-05-21T20:49:07.721Z,11.83
2023-05-21T20:51:34.199Z,11.38
2023-05-21T20:54:00.924Z,12.07
2023-05-21T20:56:40.902Z,11.88
2023-05-21T20:59:10.910Z,11.90
2023-05-21T21:01:38.429Z,11.63
2023-05-21T21:04:05.267Z,11.80
2023-05-21T21:06:31.977Z,11.55
2023-05-21T21:08:58.734Z,11.75
2023-05-21T21:11:25.244Z,11.98
2023-05-21T21:13:51.906Z,12.30
2023-05-21T21:16:18.655Z,13.00
2023-05-21T21:18:46.922Z,12.40
2023-05-21T21:21:13.769Z,11.45
2023-05-21T21:23:40.269Z,12.10
2023-05-21T21:26:07.160Z,11.87
2023-05-21T21:28:33.947Z,12.50
2023-05-21T21:31:00.686Z,12.60
2023-05-21T21:33:28.358Z,12.00
2023-05-21T21:35:55.010Z,12.00
2023-05-21T21:38:21.664Z,12.80
2023-05-21T21:40:48.209Z,12.57
2023-05-21T21:43:14.708Z,12.07
2023-05-21T21:45:41.233Z,12.43
2023-05-21T21:48:07.805Z,12.85
2023-05-21T21:50:34.366Z,12.80
2023-05-21T21:53:01.206Z,13.07
2023-05-21T21:55:27.783Z,13.18
2023-05-21T21:57:54.243Z,12.95
2023-05-21T22:00:20.988Z,13.27
2023-05-21T22:02:47.539Z,12.70
2023-05-21T22:05:17.022Z,13.27
2023-05-21T22:07:47.125Z,14.00
2023-05-21T22:10:17.260Z,13.80
2023-05-21T22:12:44.690Z,13.15
2023-05-21T22:15:18.453Z,13.77
2023-05-21T22:17:45.313Z,14.15
2023-05-21T22:20:11.895Z,14.48
2023-05-21T22:22:38.336Z,14.98
2023-05-21T22:25:05.166Z,14.57
2023-05-21T22:27:31.595Z,14.50
2023-05-21T22:29:58.016Z,14.27
2023-05-21T22:32:24.536Z,15.40
2023-05-21T22:34:50.993Z,14.82
2023-05-21T22:37:17.838Z,15.57
2023-05-21T22:39:44.341Z,15.40
2023-05-21T22:42:11.086Z,15.00
2023-05-21T22:44:37.562Z,14.85
2023-05-21T22:47:04.212Z,15.65
2023-05-21T22:49:32.611Z,15.73
2023-05-21T22:52:06.239Z,15.50
2023-05-21T22:54:32.981Z,15.70
2023-05-21T22:57:01.093Z,15.95
2023-05-21T22:59:32.387Z,16.08
2023-05-21T23:01:59.137Z,16.23
2023-05-21T23:04:42.797Z,15.73
2023-05-21T23:07:10.246Z,16.42
2023-05-21T23:09:36.717Z,17.30
2023-05-21T23:12:03.479Z,17.05
2023-05-21T23:14:29.934Z,17.05
2023-05-21T23:17:01.911Z,16.47
2023-05-21T23:19:29.495Z,17.23
2023-05-21T23:21:56.376Z,16.88
2023-05-21T23:24:23.194Z,16.60
2023-05-21T23:26:49.823Z,17.00
2023-05-21T23:29:16.452Z,17.00
2023-05-21T23:31:43.674Z,17.40
2023-05-21T23:34:10.301Z,17.20
2023-05-21T23:36:36.752Z,18.20
2023-05-21T23:39:03.558Z,17.50
2023-05-21T23:41:30.145Z,17.03
2023-05-21T23:43:56.620Z,17.58
2023-05-21T23:46:23.281Z,17.92
2023-05-21T23:48:49.853Z,16.88
2023-05-21T23:51:18.265Z,17.55
2023-05-21T23:53:45.165Z,16.97
2023-05-21T23:56:11.589Z,17.83
2023-05-21T23:58:38.030Z,17.92
